createdAt,value
2018-08-12T00:00:31.344Z,1005.36
2018-08-12T00:01:31.421Z,1005.34
2018-08-12T00:02:31.263Z,1005.31
2018-08-12T00:03:31.377Z,1005.28
2018-08-12T00:04:31.249Z,1005.34
2018-08-12T00:05:31.237Z,1005.27
2018-08-12T00:06:31.265Z,1005.31
2018-08-12T00:07:31.177Z,1005.29
2018-08-12T00:08:31.189Z,1005.29
2018-08-12T00:09:31.179Z,1005.31
2018-08-12T00:10:31.213Z,1005.27
2018-08-12T00:11:31.322Z,1005.25
2018-08-12T00:12:31.563Z,1005.27
2018-08-12T00:13:31.134Z,1005.24
2018-08-12T00:14:31.164Z,1005.24
2018-08-12T00:15:31.115Z,1005.27
2018-08-12T00:16:31.144Z,1005.24
2018-08-12T00:17:31.243Z,1005.22
2018-08-12T00:18:31.095Z,1005.22
2018-08-12T00:19:31.165Z,1005.18
2018-08-12T00:20:31.067Z,1005.21
2018-08-12T00:21:31.071Z,1005.24
2018-08-12T00:22:31.330Z,1005.23
2018-08-12T00:23:31.026Z,1005.23
2018-08-12T00:24:31.136Z,1005.20
2018-08-12T00:25:30.995Z,1005.20
2018-08-12T00:26:31.103Z,1005.22
2018-08-12T00:27:30.987Z,1005.23
2018-08-12T00:28:30.980Z,1005.22
2018-08-12T00:29:31.026Z,1005.21
2018-08-12T00:30:31.080Z,1005.15
2018-08-12T00:31:30.945Z,1005.14
2018-08-12T00:32:31.007Z,1005.09
2018-08-12T00:33:30.931Z,1005.10
2018-08-12T00:34:30.926Z,1005.10
2018-08-12T00:35:30.964Z,1005.09
2018-08-12T00:36:30.855Z,1005.06
2018-08-12T00:37:30.880Z,1005.11
2018-08-12T00:38:30.987Z,1005.05
2018-08-12T00:39:30.989Z,1005.10
2018-08-12T00:40:30.822Z,1005.09
2018-08-12T00:41:30.812Z,1005.04
2018-08-12T00:42:30.834Z,1005.09
2018-08-12T00:43:30.895Z,1005.09
2018-08-12T00:44:30.827Z,1005.06
2018-08-12T00:45:30.826Z,1005.06
2018-08-12T00:46:30.784Z,1005.10
2018-08-12T00:47:30.801Z,1005.09
2018-08-12T00:48:30.729Z,1005.07
2018-08-12T00:49:30.754Z,1005.05
2018-08-12T00:50:30.740Z,1005.07
2018-08-12T00:51:30.768Z,1005.05
2018-08-12T00:52:30.701Z,1005.04
2018-08-12T00:53:30.749Z,1005.10
2018-08-12T00:54:30.730Z,1005.05
2018-08-12T00:55:30.702Z,1005.03
2018-08-12T00:56:30.674Z,1005.05
2018-08-12T00:57:30.709Z,1005.07
2018-08-12T00:58:30.677Z,1005.06
2018-08-12T00:59:30.827Z,1005.05
2018-08-12T01:00:30.592Z,1005.04
2018-08-12T01:01:30.645Z,1005.04
2018-08-12T01:02:30.707Z,1005.04
2018-08-12T01:03:30.690Z,1004.97
2018-08-12T01:04:30.605Z,1004.97
2018-08-12T01:05:30.559Z,1004.99
2018-08-12T01:06:30.557Z,1004.97
2018-08-12T01:07:30.563Z,1004.98
2018-08-12T01:08:30.629Z,1004.97
2018-08-12T01:09:30.737Z,1005.00
2018-08-12T01:10:30.514Z,1004.94
2018-08-12T01:11:30.504Z,1004.93
2018-08-12T01:12:30.565Z,1004.90
2018-08-12T01:13:30.480Z,1004.91
2018-08-12T01:14:30.514Z,1004.86
2018-08-12T01:15:30.531Z,1004.87
2018-08-12T01:16:30.592Z,1004.86
2018-08-12T01:17:30.536Z,1004.85
2018-08-12T01:18:30.428Z,1004.82
2018-08-12T01:19:30.599Z,1004.80
2018-08-12T01:20:30.381Z,1004.79
2018-08-12T01:21:30.410Z,1004.79
2018-08-12T01:22:30.405Z,1004.78
2018-08-12T01:23:30.361Z,1004.77
2018-08-12T01:24:30.370Z,1004.77
2018-08-12T01:25:30.330Z,1004.73
2018-08-12T01:26:30.428Z,1004.70
2018-08-12T01:27:30.324Z,1004.73
2018-08-12T01:28:30.304Z,1004.73
2018-08-12T01:29:30.359Z,1004.72
2018-08-12T01:30:30.287Z,1004.70
2018-08-12T01:31:30.437Z,1004.69
2018-08-12T01:32:30.253Z,1004.72
2018-08-12T01:33:30.284Z,1004.68
2018-08-12T01:34:30.367Z,1004.70
2018-08-12T01:35:30.331Z,1004.75
2018-08-12T01:36:30.285Z,1004.71
2018-08-12T01:37:30.253Z,1004.70
2018-08-12T01:38:30.318Z,1004.74
2018-08-12T01:39:30.280Z,1004.70
2018-08-12T01:40:30.191Z,1004.72
2018-08-12T01:41:30.187Z,1004.75
2018-08-12T01:42:30.310Z,1004.72
2018-08-12T01:43:30.145Z,1004.70
2018-08-12T01:44:30.217Z,1004.68
2018-08-12T01:45:30.488Z,1004.65
2018-08-12T01:46:30.115Z,1004.66
2018-08-12T01:47:30.125Z,1004.60
2018-08-12T01:48:30.249Z,1004.62
2018-08-12T01:49:30.641Z,1004.58
2018-08-12T01:50:30.158Z,1004.57
2018-08-12T01:51:30.075Z,1004.59
2018-08-12T01:52:30.157Z,1004.53
2018-08-12T01:53:30.031Z,1004.52
2018-08-12T01:54:30.082Z,1004.52
2018-08-12T01:55:30.087Z,1004.49
2018-08-12T01:56:30.124Z,1004.47
2018-08-12T01:57:30.212Z,1004.48
2018-08-12T01:58:29.983Z,1004.47
2018-08-12T01:59:30.011Z,1004.46
2018-08-12T02:00:30.006Z,1004.44
2018-08-12T02:01:30.113Z,1004.45
2018-08-12T02:02:29.947Z,1004.41
2018-08-12T02:03:29.922Z,1004.45
2018-08-12T02:04:30.171Z,1004.41
2018-08-12T02:05:30.129Z,1004.39
2018-08-12T02:06:30.101Z,1004.38
2018-08-12T02:07:29.994Z,1004.39
2018-08-12T02:08:29.880Z,1004.38
2018-08-12T02:09:29.851Z,1004.36
2018-08-12T02:10:29.854Z,1004.38
2018-08-12T02:11:29.870Z,1004.32
2018-08-12T02:12:29.866Z,1004.33
2018-08-12T02:13:29.864Z,1004.36
2018-08-12T02:14:29.800Z,1004.28
2018-08-12T02:15:29.943Z,1004.30
2018-08-12T02:16:29.944Z,1004.27
2018-08-12T02:17:29.990Z,1004.25
2018-08-12T02:18:29.752Z,1004.26
2018-08-12T02:19:29.941Z,1004.27
2018-08-12T02:20:29.919Z,1004.26
2018-08-12T02:21:30.137Z,1004.23
2018-08-12T02:22:30.337Z,1004.25
2018-08-12T02:23:29.775Z,1004.19
2018-08-12T02:24:29.679Z,1004.17
2018-08-12T02:25:29.986Z,1004.16
2018-08-12T02:26:29.660Z,1004.13
2018-08-12T02:27:30.581Z,1004.14
2018-08-12T02:28:29.687Z,1004.11
2018-08-12T02:29:29.648Z,1004.11
2018-08-12T02:30:29.643Z,1004.10
2018-08-12T02:31:29.643Z,1004.09
2018-08-12T02:32:29.611Z,1004.12
2018-08-12T02:33:29.646Z,1004.07
2018-08-12T02:34:29.579Z,1004.07
2018-08-12T02:35:29.626Z,1004.04
2018-08-12T02:36:29.654Z,1004.12
2018-08-12T02:37:29.582Z,1004.05
2018-08-12T02:38:29.674Z,1004.03
2018-08-12T02:39:29.653Z,1004.02
2018-08-12T02:40:29.713Z,1004.03
2018-08-12T02:41:29.661Z,1003.97
2018-08-12T02:42:29.551Z,1003.96
2018-08-12T02:43:29.669Z,1003.92
2018-08-12T02:44:29.479Z,1003.91
2018-08-12T02:45:29.465Z,1003.90
2018-08-12T02:46:29.557Z,1003.92
2018-08-12T02:47:29.502Z,1003.90
2018-08-12T02:48:29.464Z,1003.89
2018-08-12T02:49:29.523Z,1003.88
2018-08-12T02:50:29.421Z,1003.89
2018-08-12T02:51:29.531Z,1003.92
2018-08-12T02:52:29.381Z,1003.88
2018-08-12T02:53:29.376Z,1003.90
2018-08-12T02:54:29.581Z,1003.87
2018-08-12T02:55:29.388Z,1003.83
2018-08-12T02:56:29.342Z,1003.81
2018-08-12T02:57:29.378Z,1003.86
2018-08-12T02:58:29.752Z,1003.83
2018-08-12T02:59:29.415Z,1003.83
2018-08-12T03:00:30.038Z,1003.80
2018-08-12T03:01:29.275Z,1003.82
2018-08-12T03:02:29.294Z,1003.81
2018-08-12T03:03:29.259Z,1003.78
2018-08-12T03:04:29.339Z,1003.77
2018-08-12T03:05:29.319Z,1003.79
2018-08-12T03:06:29.253Z,1003.76
2018-08-12T03:07:29.306Z,1003.74
2018-08-12T03:08:29.637Z,1003.70
2018-08-12T03:09:29.211Z,1003.66
2018-08-12T03:10:29.184Z,1003.64
2018-08-12T03:11:29.743Z,1003.60
2018-08-12T03:12:29.363Z,1003.56
2018-08-12T03:13:29.471Z,1003.56
2018-08-12T03:14:29.192Z,1003.57
2018-08-12T03:15:29.393Z,1003.57
2018-08-12T03:16:29.268Z,1003.53
2018-08-12T03:17:29.279Z,1003.53
2018-08-12T03:18:29.182Z,1003.51
2018-08-12T03:19:29.095Z,1003.55
2018-08-12T03:20:29.203Z,1003.53
2018-08-12T03:21:29.083Z,1003.52
2018-08-12T03:22:29.389Z,1003.50
2018-08-12T03:23:29.071Z,1003.45
2018-08-12T03:24:29.044Z,1003.46
2018-08-12T03:25:29.464Z,1003.48
2018-08-12T03:26:29.144Z,1003.48
2018-08-12T03:27:29.147Z,1003.43
2018-08-12T03:28:29.046Z,1003.48
2018-08-12T03:29:29.237Z,1003.45
2018-08-12T03:30:29.133Z,1003.44
2018-08-12T03:31:28.956Z,1003.42
2018-08-12T03:32:28.986Z,1003.41
2018-08-12T03:33:28.993Z,1003.42
2018-08-12T03:34:29.203Z,1003.38
2018-08-12T03:35:29.396Z,1003.36
2018-08-12T03:36:29.170Z,1003.34
2018-08-12T03:37:28.888Z,1003.33
2018-08-12T03:38:29.130Z,1003.32
2018-08-12T03:39:28.995Z,1003.33
2018-08-12T03:40:28.939Z,1003.27
2018-08-12T03:41:28.948Z,1003.26
2018-08-12T03:42:28.830Z,1003.28
2018-08-12T03:43:28.931Z,1003.31
2018-08-12T03:44:28.894Z,1003.26
2018-08-12T03:45:28.869Z,1003.27
2018-08-12T03:46:28.871Z,1003.30
2018-08-12T03:47:29.175Z,1003.27
2018-08-12T03:48:28.883Z,1003.25
2018-08-12T03:49:28.790Z,1003.23
2018-08-12T03:50:28.984Z,1003.26
2018-08-12T03:51:28.745Z,1003.27
2018-08-12T03:52:28.858Z,1003.30
2018-08-12T03:53:28.756Z,1003.23
2018-08-12T03:54:28.716Z,1003.22
2018-08-12T03:55:28.750Z,1003.23
2018-08-12T03:56:28.702Z,1003.23
2018-08-12T03:57:28.845Z,1003.23
2018-08-12T03:58:28.685Z,1003.20
2018-08-12T03:59:28.713Z,1003.16
2018-08-12T04:00:28.845Z,1003.13
2018-08-12T04:01:28.652Z,1003.12
2018-08-12T04:02:28.709Z,1003.14
2018-08-12T04:03:28.761Z,1003.18
2018-08-12T04:04:28.636Z,1003.17
2018-08-12T04:05:28.706Z,1003.13
2018-08-12T04:06:28.792Z,1003.17
2018-08-12T04:07:28.599Z,1003.11
2018-08-12T04:08:28.567Z,1003.18
2018-08-12T04:09:28.566Z,1003.13
2018-08-12T04:10:28.551Z,1003.16
2018-08-12T04:11:29.342Z,1003.13
2018-08-12T04:12:28.538Z,1003.14
2018-08-12T04:13:28.509Z,1003.16
2018-08-12T04:14:28.548Z,1003.12
2018-08-12T04:15:28.554Z,1003.13
2018-08-12T04:16:28.666Z,1003.11
2018-08-12T04:17:28.504Z,1003.14
2018-08-12T04:18:28.652Z,1003.12
2018-08-12T04:19:28.617Z,1003.11
2018-08-12T04:20:28.479Z,1003.16
2018-08-12T04:21:28.443Z,1003.15
2018-08-12T04:22:28.566Z,1003.16
2018-08-12T04:23:28.472Z,1003.17
2018-08-12T04:24:28.515Z,1003.15
2018-08-12T04:25:28.464Z,1003.18
2018-08-12T04:26:28.362Z,1003.17
2018-08-12T04:27:28.361Z,1003.18
2018-08-12T04:28:28.502Z,1003.18
2018-08-12T04:29:28.450Z,1003.16
2018-08-12T04:30:28.357Z,1003.16
2018-08-12T04:31:28.360Z,1003.13
2018-08-12T04:32:28.308Z,1003.11
2018-08-12T04:33:28.428Z,1003.12
2018-08-12T04:34:28.308Z,1003.06
2018-08-12T04:35:28.358Z,1003.10
2018-08-12T04:36:28.493Z,1003.07
2018-08-12T04:37:28.287Z,1003.02
2018-08-12T04:38:28.234Z,1003.04
2018-08-12T04:39:28.306Z,1002.99
2018-08-12T04:40:28.396Z,1003.02
2018-08-12T04:41:28.204Z,1003.03
2018-08-12T04:42:28.229Z,1003.02
2018-08-12T04:43:28.334Z,1003.03
2018-08-12T04:44:28.169Z,1003.04
2018-08-12T04:45:28.445Z,1003.07
2018-08-12T04:46:28.144Z,1003.04
2018-08-12T04:47:28.151Z,1003.01
2018-08-12T04:48:28.296Z,1003.02
2018-08-12T04:49:28.126Z,1002.99
2018-08-12T04:50:28.126Z,1002.99
2018-08-12T04:51:28.113Z,1002.95
2018-08-12T04:52:28.106Z,1002.91
2018-08-12T04:53:28.100Z,1002.91
2018-08-12T04:54:28.093Z,1002.93
2018-08-12T04:55:28.040Z,1002.89
2018-08-12T04:56:28.075Z,1002.86
2018-08-12T04:57:28.120Z,1002.86
2018-08-12T04:58:28.024Z,1002.85
2018-08-12T04:59:28.027Z,1002.79
2018-08-12T05:00:28.058Z,1002.83
2018-08-12T05:01:28.019Z,1002.85
2018-08-12T05:02:28.151Z,1002.80
2018-08-12T05:03:27.977Z,1002.79
2018-08-12T05:04:28.072Z,1002.79
2018-08-12T05:05:27.995Z,1002.78
2018-08-12T05:06:28.069Z,1002.79
2018-08-12T05:07:28.482Z,1002.79
2018-08-12T05:08:27.934Z,1002.82
2018-08-12T05:09:27.914Z,1002.83
2018-08-12T05:10:28.141Z,1002.78
2018-08-12T05:11:28.028Z,1002.79
2018-08-12T05:12:27.867Z,1002.82
2018-08-12T05:13:27.902Z,1002.79
2018-08-12T05:14:27.840Z,1002.78
2018-08-12T05:15:27.837Z,1002.83
2018-08-12T05:16:27.839Z,1002.76
2018-08-12T05:17:27.853Z,1002.81
2018-08-12T05:18:27.945Z,1002.78
2018-08-12T05:19:27.957Z,1002.75
2018-08-12T05:20:27.787Z,1002.75
2018-08-12T05:21:27.765Z,1002.80
2018-08-12T05:22:27.764Z,1002.79
2018-08-12T05:23:28.057Z,1002.82
2018-08-12T05:24:27.790Z,1002.79
2018-08-12T05:25:27.804Z,1002.76
2018-08-12T05:26:27.797Z,1002.79
2018-08-12T05:27:27.708Z,1002.81
2018-08-12T05:28:27.748Z,1002.83
2018-08-12T05:29:27.786Z,1002.80
2018-08-12T05:30:27.724Z,1002.80
2018-08-12T05:31:27.652Z,1002.82
2018-08-12T05:32:27.725Z,1002.82
2018-08-12T05:33:27.687Z,1002.77
2018-08-12T05:34:27.634Z,1002.80
2018-08-12T05:35:27.685Z,1002.81
2018-08-12T05:36:27.615Z,1002.81
2018-08-12T05:37:27.679Z,1002.73
2018-08-12T05:38:27.596Z,1002.71
2018-08-12T05:39:27.671Z,1002.69
2018-08-12T05:40:27.593Z,1002.68
2018-08-12T05:41:27.700Z,1002.68
2018-08-12T05:42:27.636Z,1002.68
2018-08-12T05:43:27.556Z,1002.71
2018-08-12T05:44:27.510Z,1002.67
2018-08-12T05:45:27.598Z,1002.70
2018-08-12T05:46:27.582Z,1002.69
2018-08-12T05:47:27.529Z,1002.64
2018-08-12T05:48:27.529Z,1002.64
2018-08-12T05:49:27.465Z,1002.66
2018-08-12T05:50:27.454Z,1002.68
2018-08-12T05:51:27.593Z,1002.66
2018-08-12T05:52:27.704Z,1002.68
2018-08-12T05:53:27.546Z,1002.64
2018-08-12T05:54:28.408Z,1002.66
2018-08-12T05:55:27.391Z,1002.61
2018-08-12T05:56:27.631Z,1002.59
2018-08-12T05:57:27.370Z,1002.58
2018-08-12T05:58:27.393Z,1002.54
2018-08-12T05:59:27.401Z,1002.57
2018-08-12T06:00:27.339Z,1002.55
2018-08-12T06:01:27.324Z,1002.59
2018-08-12T06:02:27.635Z,1002.56
2018-08-12T06:03:27.362Z,1002.55
2018-08-12T06:04:27.336Z,1002.52
2018-08-12T06:05:27.300Z,1002.53
2018-08-12T06:06:27.389Z,1002.48
2018-08-12T06:07:27.262Z,1002.49
2018-08-12T06:08:27.268Z,1002.51
2018-08-12T06:09:27.264Z,1002.48
2018-08-12T06:10:27.386Z,1002.48
2018-08-12T06:11:27.335Z,1002.46
2018-08-12T06:12:27.220Z,1002.44
2018-08-12T06:13:28.135Z,1002.50
2018-08-12T06:14:27.204Z,1002.44
2018-08-12T06:15:27.539Z,1002.45
2018-08-12T06:16:27.170Z,1002.43
2018-08-12T06:17:27.450Z,1002.44
2018-08-12T06:18:27.430Z,1002.44
2018-08-12T06:19:27.126Z,1002.44
2018-08-12T06:20:27.348Z,1002.39
2018-08-12T06:21:27.161Z,1002.33
2018-08-12T06:22:27.152Z,1002.31
2018-08-12T06:23:27.476Z,1002.34
2018-08-12T06:24:27.071Z,1002.35
2018-08-12T06:25:27.110Z,1002.31
2018-08-12T06:26:27.064Z,1002.30
2018-08-12T06:27:27.049Z,1002.28
2018-08-12T06:28:27.086Z,1002.36
2018-08-12T06:29:27.082Z,1002.28
2018-08-12T06:30:27.069Z,1002.24
2018-08-12T06:31:27.166Z,1002.18
2018-08-12T06:32:27.116Z,1002.24
2018-08-12T06:33:26.970Z,1002.22
2018-08-12T06:34:26.992Z,1002.24
2018-08-12T06:35:27.548Z,1002.24
2018-08-12T06:36:26.940Z,1002.28
2018-08-12T06:37:27.301Z,1002.26
2018-08-12T06:38:27.040Z,1002.28
2018-08-12T06:39:27.003Z,1002.30
2018-08-12T06:40:26.934Z,1002.33
2018-08-12T06:41:26.880Z,1002.33
2018-08-12T06:42:26.977Z,1002.28
2018-08-12T06:43:26.889Z,1002.25
2018-08-12T06:44:27.035Z,1002.25
2018-08-12T06:45:26.902Z,1002.27
2018-08-12T06:46:27.023Z,1002.24
2018-08-12T06:47:26.883Z,1002.26
2018-08-12T06:48:26.971Z,1002.25
2018-08-12T06:49:27.159Z,1002.27
2018-08-12T06:50:26.800Z,1002.28
2018-08-12T06:51:26.821Z,1002.22
2018-08-12T06:52:26.766Z,1002.23
2018-08-12T06:53:26.807Z,1002.26
2018-08-12T06:54:26.744Z,1002.23
2018-08-12T06:55:27.058Z,1002.25
2018-08-12T06:56:26.861Z,1002.31
2018-08-12T06:57:26.778Z,1002.27
2018-08-12T06:58:26.705Z,1002.31
2018-08-12T06:59:26.793Z,1002.31
2018-08-12T07:00:26.749Z,1002.29
2018-08-12T07:01:26.702Z,1002.27
2018-08-12T07:02:26.735Z,1002.27
2018-08-12T07:03:26.672Z,1002.29
2018-08-12T07:04:26.658Z,1002.26
2018-08-12T07:05:26.721Z,1002.27
2018-08-12T07:06:26.620Z,1002.28
2018-08-12T07:07:26.647Z,1002.19
2018-08-12T07:08:26.649Z,1002.23
2018-08-12T07:09:26.611Z,1002.22
2018-08-12T07:10:26.842Z,1002.17
2018-08-12T07:11:26.565Z,1002.25
2018-08-12T07:12:26.667Z,1002.22
2018-08-12T07:13:26.778Z,1002.20
2018-08-12T07:14:26.753Z,1002.17
2018-08-12T07:15:26.977Z,1002.20
2018-08-12T07:16:26.510Z,1002.16
2018-08-12T07:17:26.504Z,1002.11
2018-08-12T07:18:26.495Z,1002.14
2018-08-12T07:19:26.811Z,1002.14
2018-08-12T07:20:26.539Z,1002.15
2018-08-12T07:21:26.457Z,1002.16
2018-08-12T07:22:26.448Z,1002.18
2018-08-12T07:23:26.447Z,1002.13
2018-08-12T07:24:26.416Z,1002.16
2018-08-12T07:25:26.564Z,1002.16
2018-08-12T07:26:26.540Z,1002.15
2018-08-12T07:27:26.384Z,1002.16
2018-08-12T07:28:26.378Z,1002.23
2018-08-12T07:29:26.462Z,1002.10
2018-08-12T07:30:26.480Z,1002.16
2018-08-12T07:31:26.471Z,1002.11
2018-08-12T07:32:26.550Z,1002.14
2018-08-12T07:33:26.331Z,1002.13
2018-08-12T07:34:26.332Z,1002.14
2018-08-12T07:35:27.157Z,1002.12
2018-08-12T07:36:26.720Z,1002.11
2018-08-12T07:37:26.288Z,1002.16
2018-08-12T07:38:26.271Z,1002.10
2018-08-12T07:39:26.256Z,1002.09
2018-08-12T07:40:26.251Z,1002.09
2018-08-12T07:41:26.330Z,1002.03
2018-08-12T07:42:26.270Z,1001.99
2018-08-12T07:43:26.233Z,1002.01
2018-08-12T07:44:26.288Z,1001.99
2018-08-12T07:45:26.202Z,1002.01
2018-08-12T07:46:26.182Z,1002.03
2018-08-12T07:47:26.276Z,1002.05
2018-08-12T07:48:26.178Z,1002.02
2018-08-12T07:49:26.587Z,1002.00
2018-08-12T07:50:26.224Z,1001.97
2018-08-12T07:51:26.524Z,1001.97
2018-08-12T07:52:26.126Z,1001.96
2018-08-12T07:53:26.888Z,1001.98
2018-08-12T07:54:26.124Z,1002.00
2018-08-12T07:55:26.120Z,1001.97
2018-08-12T07:56:26.070Z,1002.00
2018-08-12T07:57:26.065Z,1002.00
2018-08-12T07:58:26.065Z,1001.96
2018-08-12T07:59:26.078Z,1001.94
2018-08-12T08:00:26.083Z,1001.96
2018-08-12T08:01:26.035Z,1001.93
2018-08-12T08:02:26.307Z,1001.90
2018-08-12T08:03:26.151Z,1001.91
2018-08-12T08:04:26.027Z,1001.90
2018-08-12T08:05:26.209Z,1001.91
2018-08-12T08:06:26.196Z,1001.96
2018-08-12T08:07:25.986Z,1001.92
2018-08-12T08:08:26.030Z,1001.92
2018-08-12T08:09:25.927Z,1001.92
2018-08-12T08:10:26.651Z,1001.94
2018-08-12T08:11:25.897Z,1001.91
2018-08-12T08:12:26.006Z,1001.87
2018-08-12T08:13:25.878Z,1001.94
2018-08-12T08:14:25.887Z,1001.96
2018-08-12T08:15:25.865Z,1001.95
2018-08-12T08:16:26.144Z,1001.96
2018-08-12T08:17:25.928Z,1001.94
2018-08-12T08:18:25.844Z,1001.90
2018-08-12T08:19:25.867Z,1001.95
2018-08-12T08:20:25.846Z,1001.90
2018-08-12T08:21:25.908Z,1001.93
2018-08-12T08:22:25.940Z,1001.95
2018-08-12T08:23:25.919Z,1001.96
2018-08-12T08:24:25.798Z,1002.01
2018-08-12T08:25:25.883Z,1002.02
2018-08-12T08:26:26.140Z,1002.00
2018-08-12T08:27:25.744Z,1002.02
2018-08-12T08:28:25.748Z,1002.00
2018-08-12T08:29:25.710Z,1002.08
2018-08-12T08:30:25.702Z,1002.01
2018-08-12T08:31:25.928Z,1002.01
2018-08-12T08:32:25.699Z,1001.95
2018-08-12T08:33:25.672Z,1001.92
2018-08-12T08:34:25.787Z,1001.86
2018-08-12T08:35:25.667Z,1001.85
2018-08-12T08:36:25.651Z,1001.88
2018-08-12T08:37:25.738Z,1001.87
2018-08-12T08:38:25.662Z,1001.84
2018-08-12T08:39:25.667Z,1001.89
2018-08-12T08:40:25.701Z,1001.86
2018-08-12T08:41:25.717Z,1001.85
2018-08-12T08:42:25.647Z,1001.82
2018-08-12T08:43:25.908Z,1001.83
2018-08-12T08:44:25.601Z,1001.77
2018-08-12T08:45:25.536Z,1001.81
2018-08-12T08:46:25.546Z,1001.81
2018-08-12T08:47:25.516Z,1001.81
2018-08-12T08:48:25.738Z,1001.82
2018-08-12T08:49:25.489Z,1001.82
2018-08-12T08:50:25.516Z,1001.84
2018-08-12T08:51:25.595Z,1001.82
2018-08-12T08:52:25.619Z,1001.82
2018-08-12T08:53:25.470Z,1001.76
2018-08-12T08:54:25.442Z,1001.83
2018-08-12T08:55:25.469Z,1001.79
2018-08-12T08:56:25.469Z,1001.81
2018-08-12T08:57:25.399Z,1001.87
2018-08-12T08:58:25.414Z,1001.86
2018-08-12T08:59:25.397Z,1001.89
2018-08-12T09:00:25.529Z,1001.87
2018-08-12T09:01:25.422Z,1001.88
2018-08-12T09:02:25.470Z,1001.84
2018-08-12T09:03:25.516Z,1001.81
2018-08-12T09:04:25.350Z,1001.94
2018-08-12T09:05:25.347Z,1001.93
2018-08-12T09:06:25.322Z,1001.93
2018-08-12T09:07:25.355Z,1001.93
2018-08-12T09:08:25.555Z,1001.88
2018-08-12T09:09:25.282Z,1001.86
2018-08-12T09:10:25.269Z,1001.82
2018-08-12T09:11:25.294Z,1001.80
2018-08-12T09:12:25.430Z,1001.81
2018-08-12T09:13:25.267Z,1001.71
2018-08-12T09:14:25.222Z,1001.83
2018-08-12T09:15:25.216Z,1001.85
2018-08-12T09:16:25.233Z,1001.84
2018-08-12T09:17:25.227Z,1001.74
2018-08-12T09:18:25.285Z,1001.71
2018-08-12T09:19:25.186Z,1001.74
2018-08-12T09:20:25.169Z,1001.63
2018-08-12T09:21:25.219Z,1001.63
2018-08-12T09:22:25.186Z,1001.60
2018-08-12T09:23:25.218Z,1001.57
2018-08-12T09:24:25.228Z,1001.60
2018-08-12T09:25:25.114Z,1001.61
2018-08-12T09:26:25.129Z,1001.62
2018-08-12T09:27:25.126Z,1001.59
2018-08-12T09:28:25.083Z,1001.56
2018-08-12T09:29:25.499Z,1001.60
2018-08-12T09:30:25.070Z,1001.58
2018-08-12T09:31:25.069Z,1001.57
2018-08-12T09:32:25.063Z,1001.55
2018-08-12T09:33:25.262Z,1001.50
2018-08-12T09:34:25.040Z,1001.49
2018-08-12T09:35:25.282Z,1001.55
2018-08-12T09:36:24.988Z,1001.50
2018-08-12T09:37:24.982Z,1001.52
2018-08-12T09:38:24.975Z,1001.48
2018-08-12T09:39:25.010Z,1001.47
2018-08-12T09:40:25.001Z,1001.47
2018-08-12T09:41:25.025Z,1001.41
2018-08-12T09:42:25.102Z,1001.45
2018-08-12T09:43:25.006Z,1001.41
2018-08-12T09:44:24.937Z,1001.40
2018-08-12T09:45:24.928Z,1001.34
2018-08-12T09:46:24.882Z,1001.40
2018-08-12T09:47:24.898Z,1001.40
2018-08-12T09:48:25.048Z,1001.34
2018-08-12T09:49:24.841Z,1001.34
2018-08-12T09:50:24.979Z,1001.30
2018-08-12T09:51:24.851Z,1001.27
2018-08-12T09:52:24.826Z,1001.34
2018-08-12T09:53:24.820Z,1001.25
2018-08-12T09:54:24.842Z,1001.29
2018-08-12T09:55:24.904Z,1001.27
2018-08-12T09:56:24.780Z,1001.27
2018-08-12T09:57:24.914Z,1001.28
2018-08-12T09:58:24.813Z,1001.28
2018-08-12T09:59:24.807Z,1001.24
2018-08-12T10:00:25.003Z,1001.24
2018-08-12T10:01:24.724Z,1001.26
2018-08-12T10:02:24.771Z,1001.25
2018-08-12T10:03:24.711Z,1001.22
2018-08-12T10:04:24.781Z,1001.24
2018-08-12T10:05:24.774Z,1001.24
2018-08-12T10:06:24.765Z,1001.23
2018-08-12T10:07:24.695Z,1001.19
2018-08-12T10:08:24.696Z,1001.20
2018-08-12T10:09:24.770Z,1001.14
2018-08-12T10:10:24.684Z,1001.16
2018-08-12T10:11:24.624Z,1001.15
2018-08-12T10:12:24.673Z,1001.12
2018-08-12T10:13:24.615Z,1001.14
2018-08-12T10:14:24.686Z,1001.14
2018-08-12T10:15:24.853Z,1001.13
2018-08-12T10:16:24.638Z,1001.14
2018-08-12T10:17:24.568Z,1001.14
2018-08-12T10:18:24.566Z,1001.08
2018-08-12T10:19:24.549Z,1001.05
2018-08-12T10:20:24.555Z,1001.04
2018-08-12T10:21:24.637Z,1001.06
2018-08-12T10:22:24.594Z,1001.06
2018-08-12T10:23:24.506Z,1001.02
2018-08-12T10:24:24.487Z,1001.04
2018-08-12T10:25:24.674Z,1001.01
2018-08-12T10:26:24.799Z,1001.03
2018-08-12T10:27:24.449Z,1001.00
2018-08-12T10:28:24.510Z,1000.96
2018-08-12T10:29:24.450Z,1000.94
2018-08-12T10:30:24.421Z,1000.98
2018-08-12T10:31:24.397Z,1000.91
2018-08-12T10:32:24.395Z,1000.91
2018-08-12T10:33:24.443Z,1000.88
2018-08-12T10:34:24.532Z,1000.86
2018-08-12T10:35:24.427Z,1000.86
2018-08-12T10:36:24.368Z,1000.82
2018-08-12T10:37:24.433Z,1000.79
2018-08-12T10:38:24.369Z,1000.73
2018-08-12T10:39:24.325Z,1000.70
2018-08-12T10:40:24.495Z,1000.72
2018-08-12T10:41:24.296Z,1000.74
2018-08-12T10:42:24.312Z,1000.74
2018-08-12T10:43:24.319Z,1000.75
2018-08-12T10:44:24.440Z,1000.70
2018-08-12T10:45:24.286Z,1000.70
2018-08-12T10:46:24.384Z,1000.67
2018-08-12T10:47:24.261Z,1000.68
2018-08-12T10:48:24.258Z,1000.67
2018-08-12T10:49:24.218Z,1000.66
2018-08-12T10:50:24.221Z,1000.69
2018-08-12T10:51:24.226Z,1000.65
2018-08-12T10:52:24.342Z,1000.58
2018-08-12T10:53:24.194Z,1000.62
2018-08-12T10:54:24.162Z,1000.60
2018-08-12T10:55:24.152Z,1000.59
2018-08-12T10:56:24.208Z,1000.56
2018-08-12T10:57:24.199Z,1000.52
2018-08-12T10:58:24.141Z,1000.51
2018-08-12T10:59:24.252Z,1000.55
2018-08-12T11:00:24.129Z,1000.55
2018-08-12T11:01:24.108Z,1000.57
2018-08-12T11:02:24.160Z,1000.54
2018-08-12T11:03:24.130Z,1000.63
2018-08-12T11:04:24.136Z,1000.60
2018-08-12T11:05:24.207Z,1000.59
2018-08-12T11:06:24.039Z,1000.48
2018-08-12T11:07:24.083Z,1000.49
2018-08-12T11:08:24.067Z,1000.48
2018-08-12T11:09:24.066Z,1000.53
2018-08-12T11:10:24.031Z,1000.52
2018-08-12T11:11:24.023Z,1000.58
2018-08-12T11:12:24.017Z,1000.60
2018-08-12T11:13:24.071Z,1000.50
2018-08-12T11:14:24.224Z,1000.58
2018-08-12T11:15:23.939Z,1000.63
2018-08-12T11:16:24.044Z,1000.74
2018-08-12T11:17:23.915Z,1000.81
2018-08-12T11:18:24.010Z,1000.98
2018-08-12T11:19:23.925Z,1000.93
2018-08-12T11:20:24.058Z,1001.05
2018-08-12T11:21:23.884Z,1001.04
2018-08-12T11:22:23.914Z,1001.01
2018-08-12T11:23:23.879Z,1000.94
2018-08-12T11:24:23.856Z,1000.94
2018-08-12T11:25:23.924Z,1000.96
2018-08-12T11:26:23.998Z,1000.98
2018-08-12T11:27:23.846Z,1001.09
2018-08-12T11:28:23.895Z,1001.02
2018-08-12T11:29:23.807Z,1001.03
2018-08-12T11:30:24.020Z,1001.09
2018-08-12T11:31:23.800Z,1001.16
2018-08-12T11:32:23.855Z,1001.16
2018-08-12T11:33:23.819Z,1001.16
2018-08-12T11:34:23.876Z,1001.19
2018-08-12T11:35:23.742Z,1001.21
2018-08-12T11:36:23.889Z,1001.18
2018-08-12T11:37:23.740Z,1001.22
2018-08-12T11:38:23.791Z,1001.25
2018-08-12T11:39:23.700Z,1001.27
2018-08-12T11:40:23.693Z,1001.25
2018-08-12T11:41:24.006Z,1001.22
2018-08-12T11:42:23.754Z,1001.19
2018-08-12T11:43:23.788Z,1001.17
2018-08-12T11:44:23.708Z,1001.20
2018-08-12T11:45:23.689Z,1001.23
2018-08-12T11:46:23.798Z,1001.18
2018-08-12T11:47:23.754Z,1001.18
2018-08-12T11:48:23.687Z,1001.13
2018-08-12T11:49:23.612Z,1001.15
2018-08-12T11:50:23.716Z,1001.20
2018-08-12T11:51:23.604Z,1001.17
2018-08-12T11:52:23.619Z,1001.15
2018-08-12T11:53:23.738Z,1001.07
2018-08-12T11:54:23.592Z,1001.07
2018-08-12T11:55:23.729Z,1001.05
2018-08-12T11:56:23.557Z,1001.02
2018-08-12T11:57:23.548Z,1001.07
2018-08-12T11:58:23.521Z,1001.07
2018-08-12T11:59:23.531Z,1001.04
2018-08-12T12:00:23.538Z,1001.03
2018-08-12T12:01:23.702Z,1000.96
2018-08-12T12:02:23.704Z,1000.97
2018-08-12T12:03:23.505Z,1000.97
2018-08-12T12:04:23.665Z,1000.94
2018-08-12T12:05:23.627Z,1000.97